DLH1PF EHAM-EDDH
Flight info
| Callsign | DLH1PF |
|---|---|
| Flight time | 0h 36m |
| Altitude | 33000 |
| Route | ANDIK M105 RIBSO RIBSO7A |
| Aircraft | A320/M-SDE3FGHIRWY/LB1 |
Departure
| Time | 2026-05-05 12:24 |
|---|---|
| Airport | Amsterdam Airport Schiphol (EHAM) |
Arrival
| Time | 2026-05-05 13:01 |
|---|---|
| Airport | Hamburg Helmut Schmidt Airport (EDDH) |
| Time | Latitude | Longitude | Altitude | Speed | Heading |
|---|---|---|---|---|---|
| 2026-05-05 11:57 | 52.30470 | 4.76773 | 0 ft | 0 kts | 322° |
| 2026-05-05 12:14 | 52.30457 | 4.76790 | -1 ft | 4 kts | 321° |
| 2026-05-05 12:15 | 52.30436 | 4.76819 | -1 ft | 4 kts | 308° |
| 2026-05-05 12:15 | 52.30427 | 4.76853 | -1 ft | 3 kts | 251° |
| 2026-05-05 12:15 | 52.30428 | 4.76858 | -1 ft | 0 kts | 248° |
| 2026-05-05 12:17 | 52.30425 | 4.76850 | -1 ft | 4 kts | 244° |
| 2026-05-05 12:17 | 52.30394 | 4.76778 | -1 ft | 10 kts | 233° |
| 2026-05-05 12:17 | 52.30359 | 4.76691 | -1 ft | 10 kts | 238° |
| 2026-05-05 12:18 | 52.30320 | 4.76588 | -1 ft | 10 kts | 238° |
| 2026-05-05 12:18 | 52.30279 | 4.76482 | -1 ft | 13 kts | 238° |
| 2026-05-05 12:18 | 52.30230 | 4.76352 | -1 ft | 17 kts | 238° |
| 2026-05-05 12:18 | 52.30158 | 4.76164 | -1 ft | 20 kts | 238° |
| 2026-05-05 12:19 | 52.30087 | 4.75979 | -1 ft | 19 kts | 238° |
| 2026-05-05 12:19 | 52.30021 | 4.75807 | -1 ft | 17 kts | 238° |
| 2026-05-05 12:19 | 52.29959 | 4.75647 | -1 ft | 16 kts | 237° |
| 2026-05-05 12:19 | 52.29902 | 4.75500 | -1 ft | 15 kts | 237° |
| 2026-05-05 12:20 | 52.29848 | 4.75358 | -1 ft | 16 kts | 242° |
| 2026-05-05 12:20 | 52.29843 | 4.75197 | -1 ft | 14 kts | 299° |
| 2026-05-05 12:20 | 52.29902 | 4.75084 | -1 ft | 12 kts | 310° |
| 2026-05-05 12:20 | 52.29984 | 4.74932 | -1 ft | 24 kts | 311° |
| 2026-05-05 12:21 | 52.30101 | 4.74718 | 4 ft | 25 kts | 311° |
| 2026-05-05 12:21 | 52.30209 | 4.74520 | 10 ft | 24 kts | 310° |
| 2026-05-05 12:21 | 52.30300 | 4.74347 | 6 ft | 22 kts | 311° |
| 2026-05-05 12:21 | 52.30408 | 4.74142 | -1 ft | 17 kts | 307° |
| 2026-05-05 12:22 | 52.30407 | 4.73972 | -1 ft | 15 kts | 260° |
| 2026-05-05 12:22 | 52.30407 | 4.73919 | -1 ft | 0 kts | 274° |
| 2026-05-05 12:22 | 52.30408 | 4.73883 | -2 ft | 7 kts | 274° |
| 2026-05-05 12:22 | 52.30412 | 4.73794 | -3 ft | 8 kts | 276° |
| 2026-05-05 12:23 | 52.30440 | 4.73761 | -3 ft | 0 kts | 359° |
| 2026-05-05 12:23 | 52.30499 | 4.73764 | -3 ft | 34 kts | 2° |
| 2026-05-05 12:24 | 52.30994 | 4.73813 | -1 ft | 105 kts | 3° |
| 2026-05-05 12:24 | 52.31901 | 4.73896 | 59 ft | 151 kts | 7° |
| 2026-05-05 12:24 | 52.32948 | 4.73983 | 747 ft | 152 kts | 12° |
| 2026-05-05 12:24 | 52.33947 | 4.74559 | 1487 ft | 156 kts | 22° |
| 2026-05-05 12:25 | 52.35034 | 4.75233 | 1934 ft | 179 kts | 21° |
| 2026-05-05 12:25 | 52.36280 | 4.75986 | 2380 ft | 203 kts | 21° |
| 2026-05-05 12:25 | 52.37672 | 4.76900 | 2901 ft | 227 kts | 31° |
| 2026-05-05 12:25 | 52.38918 | 4.78667 | 3522 ft | 246 kts | 45° |
| 2026-05-05 12:26 | 52.40134 | 4.80702 | 4417 ft | 254 kts | 46° |
| 2026-05-05 12:26 | 52.41371 | 4.82774 | 5297 ft | 262 kts | 45° |
| 2026-05-05 12:26 | 52.42791 | 4.84703 | 6144 ft | 270 kts | 31° |
| 2026-05-05 12:26 | 52.44547 | 4.85879 | 6949 ft | 277 kts | 12° |
| 2026-05-05 12:27 | 52.46477 | 4.86120 | 7819 ft | 281 kts | 356° |
| 2026-05-05 12:27 | 52.48442 | 4.85925 | 8725 ft | 284 kts | 355° |
| 2026-05-05 12:27 | 52.50428 | 4.85730 | 9649 ft | 288 kts | 357° |
| 2026-05-05 12:27 | 52.52450 | 4.86027 | 10307 ft | 302 kts | 12° |
| 2026-05-05 12:28 | 52.53795 | 4.86795 | 10496 ft | 319 kts | 25° |
| 2026-05-05 12:28 | 52.55684 | 4.88935 | 10769 ft | 343 kts | 44° |
| 2026-05-05 12:28 | 52.57227 | 4.92014 | 11354 ft | 354 kts | 51° |
| 2026-05-05 12:28 | 52.59252 | 4.96287 | 12336 ft | 361 kts | 51° |
| 2026-05-05 12:29 | 52.60817 | 4.99550 | 13068 ft | 366 kts | 50° |
| 2026-05-05 12:29 | 52.62409 | 5.02862 | 13789 ft | 371 kts | 50° |
| 2026-05-05 12:29 | 52.64020 | 5.06212 | 14441 ft | 375 kts | 50° |
| 2026-05-05 12:29 | 52.65096 | 5.08450 | 14871 ft | 378 kts | 51° |
| 2026-05-05 12:30 | 52.66707 | 5.11814 | 15515 ft | 383 kts | 51° |
| 2026-05-05 12:30 | 52.68359 | 5.15275 | 16153 ft | 387 kts | 51° |
| 2026-05-05 12:30 | 52.70028 | 5.18785 | 16798 ft | 391 kts | 51° |
| 2026-05-05 12:30 | 52.71709 | 5.22336 | 17443 ft | 395 kts | 51° |
| 2026-05-05 12:31 | 52.73337 | 5.26016 | 18071 ft | 399 kts | 58° |
| 2026-05-05 12:31 | 52.74599 | 5.30112 | 18636 ft | 403 kts | 69° |
| 2026-05-05 12:31 | 52.75558 | 5.34487 | 19211 ft | 407 kts | 71° |
| 2026-05-05 12:31 | 52.76509 | 5.38899 | 19786 ft | 410 kts | 71° |
| 2026-05-05 12:32 | 52.77456 | 5.43295 | 20344 ft | 413 kts | 71° |
| 2026-05-05 12:32 | 52.78424 | 5.47779 | 20903 ft | 417 kts | 71° |
| 2026-05-05 12:32 | 52.79402 | 5.52318 | 21437 ft | 421 kts | 71° |
| 2026-05-05 12:32 | 52.80387 | 5.56894 | 21966 ft | 425 kts | 71° |
| 2026-05-05 12:33 | 52.81378 | 5.61518 | 22475 ft | 429 kts | 71° |
| 2026-05-05 12:33 | 52.82376 | 5.66188 | 22979 ft | 432 kts | 71° |
| 2026-05-05 12:33 | 52.83379 | 5.70899 | 23482 ft | 436 kts | 71° |
| 2026-05-05 12:33 | 52.84389 | 5.75650 | 23887 ft | 440 kts | 71° |
| 2026-05-05 12:34 | 52.85390 | 5.80372 | 24281 ft | 443 kts | 71° |
| 2026-05-05 12:34 | 52.86409 | 5.85198 | 24659 ft | 446 kts | 71° |
| 2026-05-05 12:34 | 52.87432 | 5.90055 | 25044 ft | 449 kts | 71° |
| 2026-05-05 12:34 | 52.88460 | 5.94946 | 25418 ft | 452 kts | 71° |
| 2026-05-05 12:35 | 52.89496 | 5.99881 | 25783 ft | 455 kts | 71° |
| 2026-05-05 12:35 | 52.90536 | 6.04843 | 26153 ft | 458 kts | 71° |
| 2026-05-05 12:35 | 52.91581 | 6.09845 | 26499 ft | 461 kts | 72° |
| 2026-05-05 12:35 | 52.92631 | 6.14883 | 26850 ft | 464 kts | 72° |
| 2026-05-05 12:36 | 52.93668 | 6.19882 | 27188 ft | 467 kts | 72° |
| 2026-05-05 12:36 | 52.94725 | 6.24982 | 27526 ft | 470 kts | 72° |
| 2026-05-05 12:36 | 52.95787 | 6.30128 | 27855 ft | 472 kts | 72° |
| 2026-05-05 12:36 | 52.96852 | 6.35299 | 28171 ft | 475 kts | 72° |
| 2026-05-05 12:37 | 52.97918 | 6.40500 | 28489 ft | 478 kts | 72° |
| 2026-05-05 12:37 | 52.98990 | 6.45743 | 28791 ft | 481 kts | 72° |
| 2026-05-05 12:37 | 53.00066 | 6.51007 | 29080 ft | 483 kts | 72° |
| 2026-05-05 12:37 | 53.01146 | 6.56310 | 29362 ft | 486 kts | 72° |
| 2026-05-05 12:38 | 53.02214 | 6.61570 | 29625 ft | 488 kts | 72° |
| 2026-05-05 12:38 | 53.03300 | 6.66923 | 29945 ft | 489 kts | 72° |
| 2026-05-05 12:38 | 53.04383 | 6.72273 | 30355 ft | 487 kts | 72° |
| 2026-05-05 12:38 | 53.05462 | 6.77609 | 30713 ft | 487 kts | 72° |
| 2026-05-05 12:39 | 53.06538 | 6.82937 | 31053 ft | 486 kts | 72° |
| 2026-05-05 12:39 | 53.07610 | 6.88268 | 31396 ft | 486 kts | 72° |
| 2026-05-05 12:39 | 53.08677 | 6.93607 | 31738 ft | 486 kts | 73° |
| 2026-05-05 12:39 | 53.09741 | 6.98942 | 32067 ft | 486 kts | 73° |
| 2026-05-05 12:40 | 53.10802 | 7.04281 | 32408 ft | 486 kts | 73° |
| 2026-05-05 12:40 | 53.11844 | 7.09548 | 32744 ft | 486 kts | 73° |
| 2026-05-05 12:40 | 53.12897 | 7.14886 | 32940 ft | 486 kts | 73° |
| 2026-05-05 12:40 | 53.13955 | 7.20245 | 32966 ft | 488 kts | 73° |
| 2026-05-05 12:41 | 53.16078 | 7.31002 | 32961 ft | 490 kts | 73° |
| 2026-05-05 12:41 | 53.18188 | 7.41797 | 32963 ft | 491 kts | 73° |
| 2026-05-05 12:42 | 53.20298 | 7.52679 | 31859 ft | 497 kts | 73° |
| 2026-05-05 12:42 | 53.21353 | 7.58153 | 30506 ft | 506 kts | 73° |
| 2026-05-05 12:42 | 53.22432 | 7.63769 | 29158 ft | 511 kts | 72° |
| 2026-05-05 12:43 | 53.23514 | 7.69398 | 28089 ft | 507 kts | 72° |
| 2026-05-05 12:43 | 53.24582 | 7.74973 | 27225 ft | 500 kts | 72° |
| 2026-05-05 12:43 | 53.25636 | 7.80471 | 26446 ft | 493 kts | 72° |
| 2026-05-05 12:43 | 53.26673 | 7.85876 | 25745 ft | 485 kts | 72° |
| 2026-05-05 12:44 | 53.27695 | 7.91209 | 25035 ft | 480 kts | 72° |
| 2026-05-05 12:44 | 53.28704 | 7.96512 | 24195 ft | 477 kts | 72° |
| 2026-05-05 12:44 | 53.29698 | 8.01772 | 23469 ft | 472 kts | 72° |
| 2026-05-05 12:44 | 53.30664 | 8.06911 | 22684 ft | 467 kts | 72° |
| 2026-05-05 12:45 | 53.31629 | 8.12064 | 21929 ft | 462 kts | 72° |
| 2026-05-05 12:45 | 53.32539 | 8.17184 | 21216 ft | 457 kts | 77° |
| 2026-05-05 12:45 | 53.33125 | 8.22388 | 20523 ft | 453 kts | 80° |
| 2026-05-05 12:45 | 53.33675 | 8.27534 | 19915 ft | 447 kts | 80° |
| 2026-05-05 12:46 | 53.34221 | 8.32578 | 18943 ft | 436 kts | 79° |
| 2026-05-05 12:46 | 53.34759 | 8.37535 | 17809 ft | 430 kts | 79° |
| 2026-05-05 12:46 | 53.35286 | 8.42428 | 16683 ft | 423 kts | 79° |
| 2026-05-05 12:46 | 53.35801 | 8.47271 | 15994 ft | 421 kts | 79° |
| 2026-05-05 12:47 | 53.36306 | 8.52067 | 15522 ft | 415 kts | 80° |
| 2026-05-05 12:47 | 53.36790 | 8.56688 | 14652 ft | 404 kts | 80° |
| 2026-05-05 12:47 | 53.37270 | 8.61258 | 13962 ft | 390 kts | 80° |
| 2026-05-05 12:47 | 53.37727 | 8.65620 | 13390 ft | 372 kts | 80° |
| 2026-05-05 12:48 | 53.38160 | 8.69796 | 12843 ft | 356 kts | 80° |
| 2026-05-05 12:48 | 53.38581 | 8.73876 | 12303 ft | 355 kts | 80° |
| 2026-05-05 12:48 | 53.39000 | 8.77947 | 11763 ft | 355 kts | 80° |
| 2026-05-05 12:48 | 53.39419 | 8.82018 | 11204 ft | 354 kts | 81° |
| 2026-05-05 12:49 | 53.39834 | 8.86077 | 10658 ft | 353 kts | 81° |
| 2026-05-05 12:49 | 53.40242 | 8.90067 | 10478 ft | 340 kts | 81° |
| 2026-05-05 12:49 | 53.40635 | 8.93897 | 10351 ft | 327 kts | 81° |
| 2026-05-05 12:49 | 53.41011 | 8.97580 | 10233 ft | 315 kts | 81° |
| 2026-05-05 12:50 | 53.41365 | 9.01093 | 10053 ft | 306 kts | 81° |
| 2026-05-05 12:50 | 53.41712 | 9.04578 | 9949 ft | 302 kts | 81° |
| 2026-05-05 12:50 | 53.42057 | 9.08035 | 9778 ft | 299 kts | 81° |
| 2026-05-05 12:50 | 53.42399 | 9.11450 | 9406 ft | 294 kts | 81° |
| 2026-05-05 12:51 | 53.42736 | 9.14811 | 8754 ft | 291 kts | 81° |
| 2026-05-05 12:51 | 53.43067 | 9.18137 | 8107 ft | 290 kts | 81° |
| 2026-05-05 12:51 | 53.43396 | 9.21459 | 7702 ft | 288 kts | 81° |
| 2026-05-05 12:51 | 53.43722 | 9.24755 | 7385 ft | 283 kts | 81° |
| 2026-05-05 12:52 | 53.44033 | 9.27907 | 7262 ft | 272 kts | 81° |
| 2026-05-05 12:52 | 53.44335 | 9.30972 | 7134 ft | 261 kts | 81° |
| 2026-05-05 12:52 | 53.44626 | 9.33924 | 7018 ft | 255 kts | 81° |
| 2026-05-05 12:52 | 53.44912 | 9.36843 | 6937 ft | 253 kts | 81° |
| 2026-05-05 12:53 | 53.45194 | 9.39739 | 6698 ft | 251 kts | 81° |
| 2026-05-05 12:53 | 53.45474 | 9.42623 | 6351 ft | 250 kts | 80° |
| 2026-05-05 12:53 | 53.45754 | 9.45493 | 6012 ft | 249 kts | 80° |
| 2026-05-05 12:53 | 53.46029 | 9.48346 | 5651 ft | 247 kts | 80° |
| 2026-05-05 12:54 | 53.46566 | 9.53934 | 4949 ft | 242 kts | 80° |
| 2026-05-05 12:54 | 53.46829 | 9.56703 | 4608 ft | 239 kts | 80° |
| 2026-05-05 12:54 | 53.47090 | 9.59448 | 4281 ft | 237 kts | 80° |
| 2026-05-05 12:55 | 53.47350 | 9.62161 | 3957 ft | 234 kts | 80° |
| 2026-05-05 12:55 | 53.47608 | 9.64843 | 3651 ft | 231 kts | 80° |
| 2026-05-05 12:55 | 53.47879 | 9.67449 | 3509 ft | 221 kts | 73° |
| 2026-05-05 12:55 | 53.48540 | 9.69688 | 3312 ft | 212 kts | 51° |
| 2026-05-05 12:56 | 53.49480 | 9.71578 | 3063 ft | 209 kts | 49° |
| 2026-05-05 12:56 | 53.50402 | 9.73408 | 3008 ft | 208 kts | 49° |
| 2026-05-05 12:56 | 53.51334 | 9.75268 | 3015 ft | 208 kts | 49° |
| 2026-05-05 12:56 | 53.52266 | 9.77135 | 2989 ft | 209 kts | 49° |
| 2026-05-05 12:57 | 53.53197 | 9.79003 | 2786 ft | 207 kts | 50° |
| 2026-05-05 12:57 | 53.54119 | 9.80852 | 2525 ft | 205 kts | 50° |
| 2026-05-05 12:57 | 53.55030 | 9.82681 | 2243 ft | 203 kts | 50° |
| 2026-05-05 12:57 | 53.55903 | 9.84436 | 2006 ft | 187 kts | 50° |
| 2026-05-05 12:58 | 53.56701 | 9.86042 | 1746 ft | 172 kts | 50° |
| 2026-05-05 12:58 | 53.57441 | 9.87530 | 1496 ft | 158 kts | 50° |
| 2026-05-05 12:58 | 53.58105 | 9.88867 | 1318 ft | 143 kts | 50° |
| 2026-05-05 12:58 | 53.58717 | 9.90100 | 1122 ft | 133 kts | 49° |
| 2026-05-05 12:59 | 53.59305 | 9.91283 | 894 ft | 131 kts | 50° |
| 2026-05-05 12:59 | 53.59882 | 9.92444 | 738 ft | 130 kts | 50° |
| 2026-05-05 12:59 | 53.60460 | 9.93599 | 540 ft | 128 kts | 50° |
| 2026-05-05 13:00 | 53.61598 | 9.95909 | 233 ft | 128 kts | 51° |
| 2026-05-05 13:00 | 53.62164 | 9.97056 | 47 ft | 126 kts | 51° |
| 2026-05-05 13:01 | 53.63249 | 9.99257 | 47 ft | 54 kts | 51° |
| 2026-05-05 13:01 | 53.63468 | 9.99703 | 49 ft | 44 kts | 50° |
| 2026-05-05 13:01 | 53.63571 | 9.99926 | 51 ft | 15 kts | 69° |
| 2026-05-05 13:01 | 53.63556 | 10.00088 | 51 ft | 17 kts | 134° |
| 2026-05-05 13:02 | 53.63528 | 10.00129 | 49 ft | 0 kts | 141° |
| 2026-05-05 13:04 | 53.63528 | 10.00130 | 49 ft | 0 kts | 141° |
| 2026-05-05 13:04 | 53.63505 | 10.00163 | 48 ft | 9 kts | 140° |
| 2026-05-05 13:05 | 53.63443 | 10.00218 | 48 ft | 11 kts | 170° |
| 2026-05-05 13:05 | 53.63395 | 10.00225 | 48 ft | 0 kts | 176° |
| 2026-05-05 13:05 | 53.63390 | 10.00226 | 48 ft | 4 kts | 176° |
| 2026-05-05 13:06 | 53.63352 | 10.00230 | 46 ft | 5 kts | 176° |
| 2026-05-05 13:06 | 53.63331 | 10.00241 | 48 ft | 3 kts | 141° |
| 2026-05-05 13:06 | 53.63328 | 10.00285 | 48 ft | 5 kts | 87° |
| 2026-05-05 13:06 | 53.63331 | 10.00346 | 48 ft | 1 kts | 86° |
| 2026-05-05 13:07 | 53.63331 | 10.00354 | 48 ft | 0 kts | 86° |